Terminal Aerodrome Forecast
Issued by NWS

Home | Current Version | Previous Version | Text Only | Print | Product List | Glossary On
Versions: 1 2 3 4 5 6 7 8 9 10 11 12 13 14 15 16 17
000
FTUS43 KGRB 211131
TAFATW
TAF
KATW 211131Z 2112/2212 09006KT P6SM BKN080
     FM211500 11008KT P6SM -SHRA OVC050
     FM211900 11008KT P6SM -SHRA OVC022
     FM212200 08005KT 6SM -SHRA BR OVC014
     FM220200 07005KT 4SM BR OVC007
     FM220800 02003KT 3SM BR OVC005=

USA.gov is the U.S. government's official web portal to all federal, state and local government web resources and services.